Terminal Aerodrome Forecast
Issued by NWS Twin Cities, MN

Home | Current Version | Previous Version | Text Only | Print | Product List | Glossary Off
Versions: 1 2 3 4 5 6 7 8 9 10 11 12 13 14 15 16 17 18 19 20 21 22 23 24 25

000
FTUS43 KMPX 230238 AAA
TAFMSP
TAF AMD
KMSP 230238Z 2303/2406 24004KT P6SM SKC
     FM231100 30005KT P6SM SKC
     FM231500 03006KT P6SM SCT250
     FM231800 09006KT P6SM SCT250
     FM232000 14008KT P6SM FEW150 SCT200
     FM240100 11009KT P6SM SCT150 BKN200=

USA.gov is the U.S. government's official web portal to all federal, state and local government web resources and services.